Latest Weather Observations for Hopetoun North

IDW60801

Issued at 7:05 am WST Thursday 23 October 2014 (issued every 30 minutes, with the page automatically refreshed every 10 minutes)

About weather observations | Map of weather stations | Latest weather observations for WA | Other Formats
Station Details ID: 009961 Name: HOPETOUN NORTH Lat: -33.93 Lon: 120.13 Height: 26.0 m
Data from the previous 72 hours. | See also: Recent months at Hopetoun North
Date/Time
WST
Temp
°C
App
Temp
°C
Dew
Point
Rel
Hum
%
Delta-T
°C
Wind Press
QNH
hPa
Press
MSL
hPa
Rain
since 9 am
mm
Dir
 
Spd
km/h
Gust
km/h
Spd
kts
Gust
kts
23/07:00am 17.7 16.3 13.4 76 2.4 NNW 13 20 7 11 1010.7 1010.7 0.8
23/06:30am 17.2 15.1 13.7 80 2.0 NNW 17 28 9 15 1010.9 1010.9 0.8
23/06:00am 16.5 14.9 13.8 84 1.5 NNW 15 22 8 12 1010.5 1010.5 0.8
23/05:30am 16.3 14.7 14.0 86 1.3 NNW 15 24 8 13 1009.8 1009.8 0.8
23/05:00am 16.9 14.6 14.0 83 1.7 NW 19 30 10 16 1009.4 1009.4 0.8
23/04:30am 17.4 13.5 14.3 82 1.8 NW 28 41 15 22 1009.4 1009.4 0.8
23/04:00am 17.5 14.8 14.6 83 1.7 NW 22 35 12 19 1009.7 1009.7 0.8
23/03:30am 17.6 16.5 15.2 86 1.4 NW 15 24 8 13 1009.3 1009.3 0.8
23/03:00am 18.3 18.2 15.9 86 1.4 NW 11 22 6 12 1009.3 1009.3 0.8
23/02:30am 18.5 18.5 17.2 92 0.8 N 13 19 7 10 1009.2 1009.2 0.8
23/02:00am 17.5 17.5 17.3 99 0.1 NNE 13 22 7 12 1009.3 1009.3 0.8
23/01:30am 17.4 16.0 17.1 98 0.2 NE 20 28 11 15 1009.3 1009.3 0.8
23/01:00am 17.6 16.4 17.4 99 0.1 NNE 20 32 11 17 1009.4 1009.4 0.8
23/12:30am 17.4 14.5 17.1 98 0.2 ENE 28 41 15 22 1008.8 1008.8 0.8
23/12:00am 18.1 15.9 17.0 93 0.7 NE 24 37 13 20 1008.4 1008.4 0.8
 
Date/Time
WST
Temp
°C
App
Temp
°C
Dew
Point
Rel
Hum
%
Delta-T
°C
Wind Press
QNH
hPa
Press
MSL
hPa
Rain
since 9 am
mm
Dir
 
Spd
km/h
Gust
km/h
Spd
kts
Gust
kts
22/11:30pm 18.9 16.6 15.8 82 1.8 NE 22 33 12 18 1008.7 1008.7 0.8
22/11:00pm 19.4 17.9 16.4 83 1.8 NE 19 26 10 14 1008.8 1008.8 0.8
22/10:30pm 19.1 17.6 17.8 92 0.8 E 22 35 12 19 1009.2 1009.2 0.8
22/10:00pm 19.0 17.9 17.7 92 0.8 ENE 20 39 11 21 1010.3 1010.3 0.6
22/09:30pm 18.8 16.5 17.6 93 0.7 ENE 26 39 14 21 1010.6 1010.6 0.2
22/09:00pm 18.0 17.0 18.0 100 0.0 E 20 30 11 16 1010.1 1010.1 0.2
22/08:30pm 18.3 19.3 17.7 96 0.4 E 9 15 5 8 1011.1 1011.1 0.0
22/08:00pm 18.6 18.3 17.3 92 0.8 ENE 15 20 8 11 1012.3 1012.3 0.0
22/07:30pm 18.3 17.5 17.0 92 0.8 E 17 28 9 15 1011.6 1011.6 0.0
22/07:00pm 18.3 16.4 16.8 91 0.9 E 22 33 12 18 1011.3 1011.3 0.0
22/06:30pm 18.1 16.5 16.6 91 0.9 E 20 32 11 17 1011.5 1011.5 0.0
22/06:00pm 18.2 15.6 16.9 92 0.8 E 26 39 14 21 1011.5 1011.5 0.0
22/05:30pm 18.9 16.3 16.9 88 1.2 E 26 41 14 22 1011.9 1011.9 0.0
22/05:00pm 19.2 15.8 16.8 86 1.4 ESE 30 43 16 23 1012.5 1012.5 0.0
22/04:30pm 19.5 15.9 16.3 82 1.9 E 30 46 16 25 1013.2 1013.2 0.0
22/04:00pm 19.8 15.8 16.3 80 2.1 ESE 32 43 17 23 1013.9 1013.9 0.0
22/03:30pm 20.4 16.4 16.2 77 2.5 ESE 32 50 17 27 1014.2 1014.2 0.0
22/03:00pm 20.2 15.9 16.0 77 2.5 ESE 33 48 18 26 1014.5 1014.5 0.0
22/02:30pm 20.6 16.9 16.0 75 2.8 ESE 30 44 16 24 1014.9 1014.9 0.0
22/02:00pm 20.0 16.3 16.0 78 2.4 ESE 30 41 16 22 1015.5 1015.4 0.0
22/01:30pm 20.5 17.6 16.1 76 2.6 ESE 26 39 14 21 1016.5 1016.4 0.0
22/01:00pm 20.6 17.2 15.8 74 2.9 ESE 28 37 15 20 1016.9 1016.8 0.0
22/12:30pm 23.0 20.2 15.3 62 4.6 E 24 33 13 18 1017.2 1017.1 0.0
22/12:00pm 22.9 19.7 14.2 58 5.1 ENE 24 35 13 19 1017.7 1017.6 0.0
22/11:30am 22.0 18.2 13.6 59 4.9 ENE 26 37 14 20 1018.2 1018.1 0.0
22/11:00am 21.1 17.6 13.5 62 4.4 ENE 24 37 13 20 1018.8 1018.7 0.0
22/10:30am 21.0 17.1 13.4 62 4.4 ENE 26 35 14 19 1019.5 1019.4 0.0
22/10:00am 21.1 18.0 13.5 62 4.4 ENE 22 33 12 18 1020.4 1020.3 0.0
22/09:30am 20.5 17.8 13.5 64 4.0 ENE 20 28 11 15 1020.8 1020.7 0.0
22/09:00am 19.1 16.0 13.5 70 3.2 ENE 22 35 12 19 1021.1 1021.0 0.0
22/08:30am 18.3 14.7 13.0 71 3.0 ENE 24 33 13 18 1021.2 1021.1 0.0
22/08:00am 17.6 14.0 12.9 74 2.6 ENE 24 35 13 19 1021.3 1021.2 0.0
22/07:30am 17.0 14.5 13.5 80 2.0 ENE 19 30 10 16 1021.7 1021.6 0.0
22/07:00am 15.4 13.1 13.1 86 1.3 ENE 17 22 9 12 1021.6 1021.5 0.0
22/06:30am 13.4 11.9 13.1 98 0.2 NE 13 20 7 11 1021.9 1021.8 0.0
22/06:00am 12.8 12.5 12.6 99 0.1 NE 6 9 3 5 1022.2 1022.1 0.0
22/05:30am 12.9 11.7 12.7 99 0.1 NE 11 17 6 9 1022.0 1021.9 0.0
22/05:00am 13.9 13.0 13.6 98 0.2 ENE 11 19 6 10 1021.6 1021.5 0.0
22/04:30am 14.1 12.7 13.3 95 0.4 ENE 13 22 7 12 1021.7 1021.6 0.0
22/04:00am 14.0 13.0 13.5 97 0.3 NNE 11 17 6 9 1021.6 1021.5 0.0
22/03:30am 14.2 14.0 13.7 97 0.3 NE 7 11 4 6 1021.8 1021.7 0.0
22/03:00am 14.3 14.3 13.7 96 0.3 NNE 6 7 3 4 1022.0 1021.9 0.0
22/02:30am 14.1 13.5 13.5 96 0.3 NE 9 13 5 7 1021.6 1021.5 0.0
22/02:00am 13.9 13.6 13.4 97 0.3 NE 7 9 4 5 1021.8 1021.7 0.0
22/01:30am 14.1 13.8 13.3 95 0.4 NE 7 9 4 5 1021.9 1021.8 0.0
22/01:00am 14.2 13.8 12.9 92 0.7 NE 7 13 4 7 1022.1 1022.0 0.0
22/12:30am 14.4 13.6 13.0 91 0.8 NE 9 13 5 7 1022.3 1022.2 0.0
22/12:00am 14.4 13.9 12.6 89 1.0 NE 7 9 4 5 1022.7 1022.6 0.0
 
Date/Time
WST
Temp
°C
App
Temp
°C
Dew
Point
Rel
Hum
%
Delta-T
°C
Wind Press
QNH
hPa
Press
MSL
hPa
Rain
since 9 am
mm
Dir
 
Spd
km/h
Gust
km/h
Spd
kts
Gust
kts
21/11:30pm 14.5 14.0 12.7 89 1.0 NE 7 9 4 5 1023.3 1023.2 0.0
21/11:00pm 14.6 14.3 12.8 89 1.0 ENE 6 9 3 5 1023.4 1023.3 0.0
21/10:30pm 14.6 14.4 13.1 91 0.8 ENE 6 7 3 4 1023.5 1023.4 0.0
21/10:00pm 14.3 14.5 12.9 91 0.8 ENE 4 6 2 3 1023.7 1023.6 0.0
21/09:30pm 15.3 14.3 12.2 82 1.7 E 9 13 5 7 1023.9 1023.8 0.0
21/09:00pm 15.1 14.5 12.4 84 1.5 ESE 7 13 4 7 1024.2 1024.1 0.0
21/08:30pm 15.3 14.3 12.4 83 1.6 ESE 9 13 5 7 1024.4 1024.3 0.0
21/08:00pm 15.0 14.5 12.5 85 1.4 ESE 7 11 4 6 1024.4 1024.3 0.0
21/07:30pm 15.2 14.3 12.5 84 1.5 SE 9 15 5 8 1024.2 1024.1 0.0
21/07:00pm 15.5 14.1 12.3 81 1.7 SE 11 15 6 8 1024.0 1023.9 0.0
21/06:30pm 15.5 14.2 12.4 82 1.7 SE 11 15 6 8 1023.7 1023.6 0.0
21/06:00pm 15.8 14.4 12.2 79 2.0 SSE 11 15 6 8 1023.4 1023.3 0.0
21/05:30pm 16.5 15.6 12.5 77 2.2 SSE 9 13 5 7 1023.0 1022.9 0.0
21/05:00pm 17.1 14.9 12.0 72 2.8 S 15 19 8 10 1022.8 1022.7 0.0
21/04:30pm 16.6 14.8 12.2 75 2.4 SSE 13 19 7 10 1022.6 1022.5 0.0
21/04:00pm 17.5 15.9 12.8 74 2.6 SSE 13 19 7 10 1022.3 1022.2 0.0
21/03:30pm 17.3 14.9 12.6 74 2.6 SSE 17 22 9 12 1022.2 1022.1 0.0
21/03:00pm 18.4 15.6 12.6 69 3.2 S 19 30 10 16 1022.0 1021.9 0.0
21/02:30pm 17.9 15.0 12.4 70 3.1 S 19 26 10 14 1022.2 1022.1 0.0
21/02:00pm 18.4 15.6 12.6 69 3.2 S 19 26 10 14 1022.3 1022.2 0.0
21/01:30pm 18.4 15.5 12.8 70 3.1 S 20 26 11 14 1022.4 1022.3 0.0
21/01:00pm 18.6 16.2 13.7 73 2.8 S 19 28 10 15 1022.7 1022.6 0.0
21/12:30pm 18.4 16.3 13.5 73 2.8 S 17 26 9 14 1022.8 1022.7 0.0
21/12:00pm 17.6 15.4 13.3 76 2.4 SSW 17 22 9 12 1022.9 1022.8 0.0
21/11:30am 17.5 15.0 14.2 81 1.9 SSW 20 26 11 14 1023.0 1022.9 0.0
21/11:00am 18.3 16.2 14.8 80 2.0 SW 19 24 10 13 1023.0 1022.9 0.0
21/10:30am 17.8 15.6 14.5 81 1.9 SW 19 26 10 14 1023.0 1022.9 0.0
21/10:00am 17.3 15.5 14.4 83 1.7 WSW 17 24 9 13 1022.9 1022.8 0.0
21/09:30am 16.8 14.7 13.7 82 1.8 WSW 17 26 9 14 1022.7 1022.6 0.0
21/09:00am 16.9 15.3 14.9 88 1.2 WSW 17 26 9 14 1022.7 1022.6 1.2
21/08:30am 15.5 13.4 13.7 89 1.0 WSW 17 26 9 14 1022.5 1022.4 1.2
21/08:00am 15.2 13.3 14.1 93 0.6 W 17 22 9 12 1022.4 1022.3 1.2
21/07:30am 14.4 12.1 14.1 98 0.2 W 19 26 10 14 1021.9 1021.8 1.2
21/07:00am 14.1 13.3 13.9 99 0.1 W 11 20 6 11 1021.4 1021.3 1.2
21/06:30am 13.7 12.8 13.7 100 0.0 W 11 19 6 10 1021.0 1020.9 1.2
21/06:00am 13.4 12.8 13.4 100 0.0 W 9 15 5 8 1020.7 1020.6 1.2
21/05:30am 13.1 12.4 13.1 100 0.0 W 9 13 5 7 1020.3 1020.2 1.2
21/05:00am 13.3 12.2 13.1 99 0.1 W 11 17 6 9 1019.7 1019.6 1.2
21/04:30am 13.1 12.0 13.1 100 0.0 W 11 17 6 9 1019.2 1019.1 1.2
21/04:00am 13.8 12.0 13.2 96 0.3 W 15 20 8 11 1018.9 1018.8 1.2
21/03:30am 14.1 13.5 13.5 96 0.3 W 9 17 5 9 1018.6 1018.5 1.2
21/03:00am 14.5 12.9 13.9 96 0.3 WSW 15 20 8 11 1018.3 1018.2 1.2
21/02:30am 14.4 12.7 13.6 95 0.4 W 15 24 8 13 1018.0 1017.9 1.2
21/02:00am 14.4 12.3 13.6 95 0.4 W 17 26 9 14 1018.0 1017.9 1.2
21/01:30am 14.6 12.2 13.8 95 0.4 WSW 19 28 10 15 1017.9 1017.8 1.2
21/01:00am 14.4 11.7 13.6 95 0.4 WSW 20 32 11 17 1018.0 1017.9 1.2
21/12:30am 14.8 12.0 14.3 97 0.3 WSW 22 35 12 19 1018.3 1018.2 1.2
21/12:00am 15.0 12.1 13.9 93 0.6 W 22 32 12 17 1018.2 1018.1 1.2
 
Date/Time
WST
Temp
°C
App
Temp
°C
Dew
Point
Rel
Hum
%
Delta-T
°C
Wind Press
QNH
hPa
Press
MSL
hPa
Rain
since 9 am
mm
Dir
 
Spd
km/h
Gust
km/h
Spd
kts
Gust
kts
20/11:30pm 15.4 12.3 13.4 88 1.1 WSW 22 33 12 18 1017.9 1017.8 1.2
20/11:00pm 15.7 11.6 13.7 88 1.1 WSW 28 41 15 22 1017.7 1017.6 1.2
20/10:30pm 15.6 11.0 13.4 87 1.2 WSW 30 46 16 25 1017.8 1017.7 1.2
20/10:00pm 15.8 12.0 13.6 87 1.2 WSW 26 43 14 23 1018.0 1017.9 1.2
20/09:43pm 16.0 11.4 13.5 85 1.4 WSW 30 50 16 27 1018.0 1017.9 1.2
20/09:30pm 16.1 11.5 13.6 85 1.4 WSW 30 43 16 23 1017.9 1017.8 1.2
20/09:00pm 16.2 11.5 14.2 88 1.1 WSW 32 44 17 24 1017.9 1017.8 1.2
20/08:30pm 16.9 13.2 13.8 82 1.8 WSW 26 37 14 20 1017.6 1017.5 1.2
20/08:00pm 16.4 13.0 14.8 90 0.9 W 26 35 14 19 1017.4 1017.3 1.2
20/07:34pm 17.1 13.2 14.4 84 1.5 WSW 28 48 15 26 1016.9 1016.8 1.2
20/07:30pm 17.3 12.9 14.2 82 1.8 WSW 30 39 16 21 1016.9 1016.8 1.2
20/07:00pm 17.8 14.0 14.7 82 1.8 WSW 28 43 15 23 1016.1 1016.0 1.2
20/06:30pm 17.5 14.1 15.7 89 1.1 WSW 28 39 15 21 1015.5 1015.4 1.2
20/06:00pm 17.2 16.6 16.7 97 0.3 W 15 26 8 14 1014.8 1014.8 1.2
20/05:30pm 17.2 18.3 17.0 99 0.1 WSW 7 13 4 7 1014.2 1014.2 1.2
20/05:00pm 17.2 18.5 17.2 100 0.0 SW 6 7 3 4 1013.9 1013.9 1.2
20/04:30pm 17.2 18.5 17.2 100 0.0 WSW 6 9 3 5 1013.8 1013.8 1.2
20/04:00pm 17.1 18.2 17.1 100 0.0 SW 7 9 4 5 1013.4 1013.4 1.2
20/03:30pm 16.5 15.1 16.5 100 0.0 SW 19 24 10 13 1013.1 1013.1 0.8
20/03:00pm 18.3 17.6 17.3 94 0.6 SW 17 24 9 13 1012.6 1012.6 0.8
20/02:30pm 18.7 18.2 18.7 100 0.0 SW 19 26 10 14 1012.5 1012.5 0.8
20/02:00pm 18.9 17.3 16.5 86 1.4 SW 20 28 11 15 1012.1 1012.1 0.4
20/01:30pm 18.1 16.4 17.1 94 0.6 SW 22 30 12 16 1011.9 1011.9 0.4
20/01:00pm 18.6 18.3 17.3 92 0.8 W 15 26 8 14 1011.9 1011.9 0.4
20/12:30pm 19.5 17.1 14.3 72 3.0 SW 20 41 11 22 1011.4 1011.4 0.0
20/12:00pm 22.7 20.1 13.7 56 5.2 NW 20 28 11 15 1011.0 1011.0 0.0
20/11:30am 21.7 19.4 13.1 58 4.9 NW 17 30 9 16 1011.1 1011.1 0.0
20/11:00am 19.8 17.6 13.3 66 3.7 NW 17 28 9 15 1011.5 1011.5 0.0
20/10:30am 20.0 17.8 13.2 65 3.9 WNW 17 26 9 14 1011.6 1011.6 0.0
20/10:00am 19.7 18.0 13.6 68 3.5 NW 15 20 8 11 1011.6 1011.6 0.0
20/09:30am 18.3 15.6 13.0 71 3.0 NW 19 30 10 16 1011.8 1011.8 0.0
20/09:00am 17.8 15.5 12.9 73 2.7 WNW 17 24 9 13 1011.9 1011.9 7.4
20/08:30am 17.5 14.6 13.0 75 2.5 NNW 20 30 11 16 1011.8 1011.8 7.4
20/08:00am 17.0 14.4 13.3 79 2.1 NNW 19 28 10 15 1011.6 1011.6 7.4
20/07:30am 16.2 13.4 13.3 83 1.6 NNW 20 30 11 16 1011.4 1011.4 7.4

Other Formats:

Comma delimited format used in spreadsheet applications
http://www.bom.gov.au/fwo/IDW60801/IDW60801.95635.axf

JavaScript Object Notation format (JSON) in row-major order
http://www.bom.gov.au/fwo/IDW60801/IDW60801.95635.json